createdAt,value
2019-04-26T00:02:01.666Z,1.27
2019-04-26T00:04:36.267Z,1.15
2019-04-26T00:07:10.462Z,1.10
2019-04-26T00:09:44.344Z,1.40
2019-04-26T00:12:23.927Z,1.20
2019-04-26T00:15:03.467Z,1.20
2019-04-26T00:17:37.876Z,1.02
2019-04-26T00:20:12.919Z,1.45
2019-04-26T00:22:45.490Z,1.10
2019-04-26T00:25:19.091Z,1.05
2019-04-26T00:27:52.699Z,0.98
2019-04-26T00:30:26.283Z,1.17
2019-04-26T00:32:59.956Z,1.00
2019-04-26T00:35:46.572Z,0.88
2019-04-26T00:38:08.061Z,1.10
2019-04-26T00:40:41.747Z,0.90
2019-04-26T00:43:16.320Z,1.08
2019-04-26T00:45:49.108Z,0.90
2019-04-26T00:48:23.122Z,1.40
2019-04-26T00:50:56.463Z,0.77
2019-04-26T00:53:30.295Z,1.15
2019-04-26T00:56:04.022Z,1.08
2019-04-26T00:58:37.834Z,1.10
2019-04-26T01:01:11.671Z,1.27
2019-04-26T01:03:45.685Z,1.20
2019-04-26T01:06:19.456Z,1.37
2019-04-26T01:08:53.022Z,1.10
2019-04-26T01:11:26.538Z,1.17
2019-04-26T01:14:00.262Z,1.12
2019-04-26T01:16:34.695Z,0.85
2019-04-26T01:19:08.340Z,0.80
2019-04-26T01:21:42.032Z,0.90
2019-04-26T01:24:16.898Z,1.05
2019-04-26T01:26:50.803Z,1.20
2019-04-26T01:29:24.412Z,1.00
2019-04-26T01:31:58.923Z,1.30
2019-04-26T01:34:32.642Z,1.10
2019-04-26T01:37:06.988Z,1.05
2019-04-26T01:39:41.516Z,1.48
2019-04-26T01:42:22.333Z,0.80
2019-04-26T01:44:56.451Z,1.05
2019-04-26T01:47:30.122Z,0.50
2019-04-26T01:50:03.683Z,1.00
2019-04-26T01:52:37.327Z,0.80
2019-04-26T01:55:10.940Z,0.98
2019-04-26T01:57:44.641Z,0.95
2019-04-26T02:00:23.979Z,0.90
2019-04-26T02:02:58.545Z,1.05
2019-04-26T02:05:33.204Z,1.27
2019-04-26T02:08:06.947Z,1.12
2019-04-26T02:10:41.336Z,0.77
2019-04-26T02:13:16.863Z,1.15
2019-04-26T02:15:50.593Z,1.30
2019-04-26T02:18:25.440Z,1.00
2019-04-26T02:21:02.507Z,0.95
2019-04-26T02:23:52.909Z,0.62
2019-04-26T02:26:34.834Z,0.70
2019-04-26T02:29:20.467Z,0.90
2019-04-26T02:31:54.253Z,0.70
2019-04-26T02:34:29.880Z,1.10
2019-04-26T02:37:02.308Z,1.12
2019-04-26T02:39:37.483Z,0.90
2019-04-26T02:42:24.470Z,0.85
2019-04-26T02:45:05.268Z,1.75
2019-04-26T02:47:54.595Z,1.20
2019-04-26T02:50:31.146Z,0.73
2019-04-26T03:06:36.625Z,1.17
2019-04-26T03:09:08.068Z,1.42
2019-04-26T03:11:43.426Z,0.90
2019-04-26T03:17:07.485Z,1.10
2019-04-26T03:20:01.081Z,1.45
2019-04-26T03:22:47.743Z,1.15
2019-04-26T03:38:55.413Z,1.00
2019-04-26T03:41:34.365Z,1.17
2019-04-26T03:44:09.026Z,2.10
2019-04-26T03:46:45.319Z,0.93
2019-04-26T03:49:33.636Z,1.65
2019-04-26T03:52:18.659Z,1.37
2019-04-26T03:54:55.859Z,1.10
2019-04-26T03:57:42.850Z,1.60
2019-04-26T04:00:15.729Z,1.20
2019-04-26T04:02:57.285Z,1.12
2019-04-26T04:05:37.321Z,1.10
2019-04-26T04:08:09.397Z,1.23
2019-04-26T04:10:44.119Z,1.65
2019-04-26T04:13:19.885Z,1.35
2019-04-26T04:15:53.607Z,1.50
2019-04-26T04:18:27.198Z,1.30
2019-04-26T04:21:14.597Z,2.28
2019-04-26T04:23:54.708Z,1.73
2019-04-26T04:26:32.276Z,1.35
2019-04-26T04:29:18.627Z,1.40
2019-04-26T04:31:55.167Z,1.73
2019-04-26T04:34:40.122Z,1.60
2019-04-26T04:37:13.220Z,1.50
2019-04-26T04:39:53.332Z,1.77
2019-04-26T04:42:45.745Z,2.00
2019-04-26T04:45:26.672Z,1.37
2019-04-26T04:48:11.235Z,1.50
2019-04-26T04:50:53.287Z,1.50
2019-04-26T04:53:36.742Z,1.70
2019-04-26T05:09:53.754Z,2.85
2019-04-26T05:12:30.937Z,1.90
2019-04-26T05:15:19.491Z,2.30
2019-04-26T05:17:54.062Z,1.67
2019-04-26T05:20:32.029Z,1.73
2019-04-26T05:23:07.375Z,2.25
2019-04-26T05:25:51.688Z,1.40
2019-04-26T16:18:19.442Z,1.48
2019-04-26T16:20:53.463Z,1.12
2019-04-26T16:23:38.425Z,1.50
2019-04-26T16:26:00.520Z,0.95
2019-04-26T16:28:38.385Z,1.90
2019-04-26T16:31:14.029Z,1.20
2019-04-26T16:33:52.356Z,2.00
2019-04-26T16:36:25.872Z,1.23
2019-04-26T16:38:59.668Z,1.92
2019-04-26T16:41:37.784Z,1.42
2019-04-26T16:44:07.952Z,1.62
2019-04-26T16:46:43.852Z,2.20
2019-04-26T16:49:15.971Z,1.60
2019-04-26T16:51:54.516Z,1.35
2019-04-26T16:54:26.621Z,2.30
2019-04-26T16:56:58.819Z,1.00
2019-04-26T16:59:30.460Z,0.90
2019-04-26T17:02:04.236Z,1.08
2019-04-26T17:04:37.921Z,1.45
2019-04-26T17:07:13.296Z,1.15
2019-04-26T17:09:58.982Z,0.90
2019-04-26T17:12:20.433Z,1.55
2019-04-26T17:14:54.962Z,1.90
2019-04-26T17:17:28.580Z,1.00
2019-04-26T17:20:02.650Z,1.50
2019-04-26T17:22:44.365Z,2.25
2019-04-26T17:25:26.744Z,1.87
2019-04-26T17:27:57.719Z,2.55
2019-04-26T17:30:34.515Z,1.45
2019-04-26T17:33:05.414Z,1.48
2019-04-26T17:35:40.956Z,1.58
2019-04-26T17:38:12.836Z,1.30
2019-04-26T17:40:46.415Z,1.42
2019-04-26T17:43:21.194Z,1.77
2019-04-26T17:45:53.759Z,2.05
2019-04-26T17:48:27.374Z,1.67
2019-04-26T17:51:01.045Z,2.12
2019-04-26T17:53:35.586Z,2.35
2019-04-26T17:56:11.005Z,1.90
2019-04-26T17:58:51.535Z,1.90
2019-04-26T18:01:41.489Z,2.10
2019-04-26T18:03:54.300Z,1.48
2019-04-26T18:06:29.927Z,2.17
2019-04-26T18:08:57.937Z,3.42
2019-04-26T18:11:32.983Z,1.60
2019-04-26T18:14:08.186Z,1.70
2019-04-26T18:16:39.694Z,1.60
2019-04-26T18:19:16.044Z,2.35
2019-04-26T18:22:00.473Z,2.10
2019-04-26T18:24:35.099Z,2.83
2019-04-26T18:27:07.849Z,2.62
2019-04-26T18:29:41.671Z,2.12
2019-04-26T18:32:15.235Z,1.65
2019-04-26T18:34:48.817Z,2.05
2019-04-26T18:37:23.100Z,1.75
2019-04-26T18:39:57.474Z,2.40
2019-04-26T18:42:30.471Z,1.80
2019-04-26T18:45:08.071Z,1.83
2019-04-26T18:47:43.750Z,1.83
2019-04-26T18:50:15.472Z,1.23
2019-04-26T18:53:09.080Z,1.40
2019-04-26T18:55:43.094Z,1.05
2019-04-26T18:58:17.089Z,1.55
2019-04-26T19:00:50.826Z,1.83
2019-04-26T19:03:29.996Z,1.95
2019-04-26T19:06:02.569Z,2.40
2019-04-26T19:08:43.821Z,3.25
2019-04-26T19:11:07.542Z,2.50
2019-04-26T19:13:56.493Z,3.50
2019-04-26T19:16:31.927Z,2.95
2019-04-26T19:19:03.915Z,3.10
2019-04-26T19:21:39.302Z,3.00
2019-04-26T19:24:17.115Z,3.17
2019-04-26T19:26:49.590Z,2.12
2019-04-26T19:29:29.378Z,3.00
2019-04-26T19:31:52.532Z,3.35
2019-04-26T19:34:30.193Z,3.05
2019-04-26T19:37:01.476Z,3.85
2019-04-26T19:39:35.641Z,2.50
2019-04-26T19:42:07.111Z,4.15
2019-04-26T19:44:42.091Z,3.28
2019-04-26T19:47:17.611Z,2.60
2019-04-26T19:49:54.108Z,2.85
2019-04-26T19:52:26.602Z,5.55
2019-04-26T19:55:07.336Z,2.42
2019-04-26T19:57:57.474Z,2.60
2019-04-26T20:00:32.162Z,2.55
2019-04-26T20:03:08.475Z,2.40
2019-04-26T20:05:43.512Z,1.90
2019-04-26T20:08:14.143Z,2.65
2019-04-26T20:10:47.902Z,1.92
2019-04-26T20:13:22.059Z,2.20
2019-04-26T20:15:57.400Z,1.70
2019-04-26T20:18:34.413Z,1.90
2019-04-26T20:21:06.332Z,1.90
2019-04-26T20:23:38.269Z,2.10
2019-04-26T20:26:09.775Z,1.60
2019-04-26T20:28:43.386Z,1.73
2019-04-26T20:31:17.095Z,1.95
2019-04-26T20:33:50.867Z,2.33
2019-04-26T20:36:24.527Z,1.65
2019-04-26T20:38:58.331Z,1.90
2019-04-26T20:41:32.841Z,1.85
2019-04-26T20:44:09.740Z,1.40
2019-04-26T20:46:40.272Z,3.47
2019-04-26T20:49:13.932Z,2.37
2019-04-26T20:51:47.511Z,1.58
2019-04-26T20:54:22.466Z,1.90
2019-04-26T20:56:55.722Z,1.60
2019-04-26T20:59:29.398Z,1.50
2019-04-26T21:02:07.885Z,1.40
2019-04-26T21:04:38.576Z,1.20
2019-04-26T21:07:14.074Z,1.70
2019-04-26T21:09:45.045Z,2.50
2019-04-26T21:12:18.832Z,4.90
2019-04-26T21:14:53.638Z,3.83
2019-04-26T21:17:27.773Z,1.45
2019-04-26T21:20:01.974Z,1.55
2019-04-26T21:22:34.421Z,1.40
2019-04-26T21:25:11.807Z,1.70
2019-04-26T21:27:47.221Z,1.52
2019-04-26T21:30:33.586Z,1.50
2019-04-26T21:33:16.358Z,1.40
2019-04-26T21:35:53.050Z,1.30
2019-04-26T21:38:41.480Z,1.30
2019-04-26T21:41:19.868Z,1.10
2019-04-26T21:43:54.329Z,1.10
2019-04-26T21:46:28.990Z,1.52
2019-04-26T21:49:03.513Z,1.65
2019-04-26T21:51:35.465Z,2.15
2019-04-26T21:54:09.067Z,1.60
2019-04-26T21:56:48.403Z,1.90
2019-04-26T21:59:16.479Z,1.62
2019-04-26T22:01:52.316Z,2.37
2019-04-26T22:04:28.638Z,1.60
2019-04-26T22:06:59.977Z,1.73
2019-04-26T22:09:36.706Z,1.98
2019-04-26T22:12:07.056Z,2.97
2019-04-26T22:14:40.846Z,4.12
2019-04-26T22:17:14.426Z,2.83
2019-04-26T22:19:48.129Z,2.72
2019-04-26T22:22:25.468Z,2.60
2019-04-26T22:24:59.021Z,2.60
2019-04-26T22:27:32.823Z,2.62
2019-04-26T22:30:06.559Z,3.03
2019-04-26T22:32:40.292Z,2.20
2019-04-26T22:35:20.126Z,2.50
2019-04-26T22:37:48.200Z,3.15
2019-04-26T22:40:23.254Z,2.37
2019-04-26T22:42:55.155Z,3.53
2019-04-26T22:45:33.675Z,2.40
2019-04-26T22:48:23.237Z,2.67
2019-04-26T22:50:58.276Z,3.08
2019-04-26T22:53:27.460Z,2.22
2019-04-26T22:56:01.392Z,2.75
2019-04-26T22:58:33.795Z,3.00
2019-04-26T23:01:06.735Z,2.90
2019-04-26T23:03:41.356Z,3.35
2019-04-26T23:06:15.334Z,2.87
2019-04-26T23:08:49.337Z,2.78
2019-04-26T23:11:23.438Z,2.95
2019-04-26T23:13:57.421Z,3.10
2019-04-26T23:16:33.565Z,3.10
2019-04-26T23:19:11.342Z,2.45
2019-04-26T23:21:52.907Z,3.17
2019-04-26T23:24:19.898Z,2.50
2019-04-26T23:26:54.140Z,2.65
2019-04-26T23:29:27.355Z,2.70
2019-04-26T23:32:01.027Z,2.50
2019-04-26T23:34:34.789Z,2.60
2019-04-26T23:37:08.584Z,3.08
2019-04-26T23:39:44.462Z,2.85
2019-04-26T23:42:16.466Z,2.40
2019-04-26T23:44:49.566Z,2.35
2019-04-26T23:47:25.540Z,3.50
2019-04-26T23:49:57.163Z,3.58
2019-04-26T23:52:30.545Z,2.30
2019-04-26T23:55:07.805Z,2.70
2019-04-26T23:57:37.990Z,2.20
